This is the latest recevied weather packets stored in our database for station/object CYYJ. If no packets are shown the sender has not sent any weather packets the latest 10 day(s).
| Time | Temp. | Humidity | Pressure | Rain* | Wind** | Luminosity | Snow |
|---|---|---|---|---|---|---|---|
| 1777839807 | 21.67° C | 46% | 1013.5 hPa | - | - | - | - |
| 1777837407 | 21.67° C | 49% | 1013.9 hPa | - | - | - | - |
| 1777836805 | 21.67° C | 49% | 1013.9 hPa | - | - | - | - |
| 1777834407 | 20.56° C | 49% | 1014.2 hPa | - | - | - | - |
| 1777833804 | 20.56° C | 49% | 1014.2 hPa | - | - | - | - |
| 1777833208 | 20.56° C | 49% | 1014.2 hPa | - | - | - | - |
| 1777832605 | 20.56° C | 49% | 1014.2 hPa | - | - | - | - |
| 1777831404 | 18.89° C | 52% | 1014.6 hPa | - | - | - | - |
| 1777829002 | 18.89° C | 52% | 1014.6 hPa | - | - | - | - |
| 1777824807 | 17.78° C | 52% | 1014.9 hPa | - | - | - | - |
| 1777821809 | 15° C | 77% | 1015.2 hPa | - | - | - | - |
| 1777817004 | 10° C | 93% | 1014.6 hPa | - | - | - | - |
| 1777809804 | 11.67° C | 81% | 1014.6 hPa | - | - | - | - |
| 1777804400 | 11.67° C | 81% | 1014.6 hPa | - | - | - | - |
| 1777803800 | 11.67° C | 81% | 1014.6 hPa | - | - | - | - |
| 1777802601 | 11.67° C | 87% | 1014.6 hPa | - | - | - | - |
| 1777802002 | 11.67° C | 87% | 1014.6 hPa | - | - | - | - |
| 1777801403 | 11.67° C | 87% | 1014.6 hPa | - | - | - | - |
| 1777800802 | 11.67° C | 87% | 1014.6 hPa | - | - | - | - |
| 1777800201 | 11.67° C | 87% | 1014.6 hPa | - | - | - | - |
| 1777799603 | 11.67° C | 87% | 1014.6 hPa | - | - | - | - |
| 1777799003 | 13.89° C | 71% | 1014.6 hPa | - | - | - | - |
| 1777798403 | 13.89° C | 71% | 1014.6 hPa | - | - | - | - |
| 1777797202 | 13.89° C | 71% | 1014.6 hPa | - | - | - | - |
| 1777796607 | 13.89° C | 71% | 1014.6 hPa | - | - | - | - |
* Rain since midnight (hover to see other rain measurements)
** Current wind speed in m/s (hover to see current wind gust speed)